Time;durP1;ratioP1;P1;durP2;ratioP2;P2;SDS_P1;SDS_P2;PMS_P1;PMS_P2;Temp;Humidity;BMP_temperature;BMP_pressure;BME280_temperature;BME280_humidity;BME280_pressure;Samples;Min_cycle;Max_cycle;Signal;HPM_P1;HPM_P2
2022/07/18 00:02:20;;;;;;;4.38;3.10;;;23.10;58.10;;;;;;5067701;28;20221;-70
2022/07/18 00:04:46;;;;;;;4.00;2.95;;;23.10;58.00;;;;;;5052840;28;20627;-70
2022/07/18 00:07:12;;;;;;;4.95;3.60;;;23.10;58.00;;;;;;5051420;28;20179;-69
2022/07/18 00:09:40;;;;;;;4.15;3.33;;;23.10;58.10;;;;;;5052704;28;20179;-69
2022/07/18 00:12:07;;;;;;;4.30;2.90;;;23.10;58.10;;;;;;5052020;28;20199;-69
2022/07/18 00:14:35;;;;;;;4.95;3.00;;;23.10;58.10;;;;;;5034825;28;20194;-69
2022/07/18 00:17:02;;;;;;;4.35;3.00;;;23.20;58.20;;;;;;5051517;28;20201;-69
2022/07/18 00:19:29;;;;;;;4.25;3.33;;;23.20;58.20;;;;;;5052291;28;20669;-69
2022/07/18 00:21:54;;;;;;;3.58;2.90;;;23.10;58.00;;;;;;5051303;28;20214;-70
2022/07/18 00:24:20;;;;;;;3.88;3.10;;;23.10;58.10;;;;;;5050778;28;20222;-69
2022/07/18 00:26:46;;;;;;;3.50;3.20;;;23.10;58.10;;;;;;5034547;28;20250;-69
2022/07/18 00:29:12;;;;;;;4.90;3.13;;;23.10;58.10;;;;;;5051257;28;20206;-69
2022/07/18 00:31:38;;;;;;;3.47;2.97;;;23.10;58.10;;;;;;5050914;28;20210;-70
2022/07/18 00:34:04;;;;;;;4.15;3.17;;;23.10;58.10;;;;;;5050667;28;20248;-69
2022/07/18 00:36:31;;;;;;;4.78;3.35;;;23.10;58.10;;;;;;5051255;28;20190;-69
2022/07/18 00:38:58;;;;;;;4.57;3.13;;;23.10;58.10;;;;;;5050946;28;20209;-69
2022/07/18 00:41:24;;;;;;;4.38;3.28;;;23.10;58.10;;;;;;5051148;28;20210;-69
2022/07/18 00:43:51;;;;;;;4.47;3.70;;;23.10;58.10;;;;;;5051785;28;20745;-69
2022/07/18 00:46:28;;;;;;;4.63;3.38;;;23.10;58.10;;;;;;5056249;28;20182;-69
2022/07/18 00:48:55;;;;;;;3.05;2.85;;;23.10;58.20;;;;;;5055416;28;20170;-69
2022/07/18 00:51:22;;;;;;;4.30;3.38;;;23.10;58.10;;;;;;5056036;28;20232;-69
2022/07/18 00:53:49;;;;;;;3.65;3.28;;;23.10;58.20;;;;;;5054706;28;20179;-70
2022/07/18 00:56:20;;;;;;;3.78;3.00;;;23.10;58.20;;;;;;5054972;28;20178;-69
2022/07/18 00:58:47;;;;;;;3.53;3.22;;;23.10;58.10;;;;;;5055009;28;20194;-69
2022/07/18 01:03:57;;;;;;;3.10;2.65;;;23.10;58.20;;;;;;5054237;28;20747;-70
2022/07/18 01:06:23;;;;;;;3.00;2.80;;;23.10;58.10;;;;;;5054788;28;20182;-70
2022/07/18 01:08:49;;;;;;;4.85;3.38;;;23.10;58.20;;;;;;5055005;28;20178;-69
2022/07/18 01:11:15;;;;;;;4.50;2.70;;;23.10;58.20;;;;;;5038354;28;20217;-69
2022/07/18 01:13:41;;;;;;;3.65;3.08;;;23.10;58.20;;;;;;5054175;28;20218;-69
2022/07/18 01:16:07;;;;;;;3.75;3.30;;;23.10;58.20;;;;;;5054788;28;20174;-69
2022/07/18 01:18:33;;;;;;;2.78;2.55;;;23.00;58.10;;;;;;5055759;28;20193;-69
2022/07/18 01:20:58;;;;;;;3.38;2.78;;;23.10;58.20;;;;;;5054385;28;20271;-69
2022/07/18 01:23:24;;;;;;;3.22;2.90;;;23.10;58.20;;;;;;5053902;28;20236;-69
2022/07/18 01:25:51;;;;;;;3.03;2.72;;;23.00;58.10;;;;;;5054381;28;20210;-69
2022/07/18 01:28:17;;;;;;;2.97;2.70;;;23.00;58.10;;;;;;5037650;28;20178;-69
2022/07/18 01:30:43;;;;;;;3.28;2.97;;;23.00;58.70;;;;;;5037771;28;20186;-69
2022/07/18 01:33:09;;;;;;;3.65;2.90;;;23.00;58.10;;;;;;5053643;28;20182;-69
2022/07/18 01:35:35;;;;;;;3.28;2.92;;;23.00;58.20;;;;;;5037415;28;20654;-69
2022/07/18 01:38:03;;;;;;;3.95;2.63;;;23.00;58.20;;;;;;5054111;28;20189;-70
2022/07/18 01:40:29;;;;;;;3.10;2.80;;;23.00;58.20;;;;;;5037728;28;20181;-69
2022/07/18 01:42:56;;;;;;;3.08;2.47;;;23.00;58.10;;;;;;5053546;28;20230;-70
2022/07/18 01:45:22;;;;;;;3.88;2.80;;;23.00;58.10;;;;;;5055089;28;20260;-69
2022/07/18 01:47:48;;;;;;;4.32;2.67;;;23.10;58.20;;;;;;5053902;28;20193;-69
2022/07/18 01:50:15;;;;;;;3.45;2.80;;;23.00;58.20;;;;;;5055342;28;20190;-70
2022/07/18 01:52:41;;;;;;;2.80;2.47;;;23.00;58.10;;;;;;5054501;28;20206;-70
2022/07/18 01:55:09;;;;;;;3.67;2.85;;;23.00;58.20;;;;;;5054968;28;20190;-69
2022/07/18 01:57:35;;;;;;;3.28;2.97;;;23.00;58.20;;;;;;5037138;28;20206;-69
2022/07/18 02:00:02;;;;;;;3.30;2.70;;;23.00;58.20;;;;;;5055016;28;20621;-69
2022/07/18 02:02:30;;;;;;;2.92;2.72;;;23.00;58.20;;;;;;5054350;28;20324;-69
2022/07/18 02:04:59;;;;;;;2.95;2.65;;;23.00;58.20;;;;;;5054855;28;20298;-69
2022/07/18 02:07:30;;;;;;;2.75;2.47;;;23.00;58.20;;;;;;5054820;28;20626;-69
2022/07/18 02:09:58;;;;;;;2.60;2.40;;;23.00;58.20;;;;;;5053909;28;20179;-69
2022/07/18 02:12:24;;;;;;;2.70;2.50;;;23.00;58.20;;;;;;5053059;28;20203;-69
2022/07/18 02:14:50;;;;;;;2.97;2.67;;;23.00;58.20;;;;;;5036872;28;20209;-69
2022/07/18 02:17:16;;;;;;;2.50;2.30;;;23.00;58.20;;;;;;5054971;28;20218;-70
2022/07/18 02:19:42;;;;;;;2.80;2.50;;;23.00;58.20;;;;;;5053254;28;20190;-70
2022/07/18 02:22:08;;;;;;;2.95;2.75;;;23.00;58.30;;;;;;5054205;28;20197;-70
2022/07/18 02:24:33;;;;;;;3.55;2.60;;;23.00;58.30;;;;;;5036237;28;20275;-69
2022/07/18 02:27:00;;;;;;;4.07;2.90;;;22.90;58.20;;;;;;5053399;28;20232;-70
2022/07/18 02:29:26;;;;;;;2.50;2.28;;;22.90;58.20;;;;;;5053137;28;20261;-69
2022/07/18 02:31:52;;;;;;;2.72;2.30;;;22.90;58.70;;;;;;5053163;28;20202;-69
2022/07/18 02:34:18;;;;;;;2.72;2.53;;;23.00;58.20;;;;;;5052772;28;20190;-69
2022/07/18 02:36:44;;;;;;;2.55;2.35;;;22.90;58.10;;;;;;5054500;28;20186;-70
2022/07/18 02:39:10;;;;;;;2.50;2.30;;;23.00;58.20;;;;;;5053059;28;20182;-68
2022/07/18 02:41:36;;;;;;;2.67;2.47;;;22.90;58.10;;;;;;5036608;28;20199;-69
2022/07/18 02:44:04;;;;;;;3.80;2.65;;;23.00;58.20;;;;;;5053429;28;20211;-69
2022/07/18 02:46:30;;;;;;;2.58;2.38;;;23.00;58.20;;;;;;5053034;28;20182;-69
2022/07/18 02:48:55;;;;;;;2.72;2.33;;;23.00;58.20;;;;;;5053153;28;20269;-69
2022/07/18 02:51:21;;;;;;;2.92;2.70;;;22.90;58.20;;;;;;5052583;28;20203;-69
2022/07/18 02:53:47;;;;;;;2.45;2.10;;;23.00;58.80;;;;;;5052612;28;20232;-70
2022/07/18 02:56:12;;;;;;;2.38;2.17;;;22.90;58.20;;;;;;5052647;28;20175;-69
2022/07/18 02:58:39;;;;;;;2.30;2.10;;;22.90;58.20;;;;;;5049238;28;20277;-70
2022/07/18 03:01:05;;;;;;;2.80;2.53;;;22.90;58.20;;;;;;5035929;28;20219;-69
2022/07/18 03:03:30;;;;;;;2.63;2.42;;;22.90;58.20;;;;;;5052269;28;20210;-69
2022/07/18 03:05:56;;;;;;;3.03;2.30;;;22.90;58.20;;;;;;5052055;28;20751;-69
2022/07/18 03:08:22;;;;;;;3.30;2.60;;;22.90;58.20;;;;;;5036201;28;20552;-70
2022/07/18 03:10:47;;;;;;;2.65;2.20;;;22.90;58.20;;;;;;5053626;28;20190;-69
2022/07/18 03:13:13;;;;;;;2.75;2.35;;;22.90;58.20;;;;;;5035195;28;20223;-70
2022/07/18 03:15:40;;;;;;;3.38;2.53;;;22.90;58.20;;;;;;5052149;28;20273;-69
2022/07/18 03:18:06;;;;;;;2.80;2.50;;;22.90;58.30;;;;;;5035604;28;20651;-69
2022/07/18 03:20:32;;;;;;;2.60;2.40;;;22.90;58.30;;;;;;5052354;28;20190;-69
2022/07/18 03:22:58;;;;;;;3.30;2.10;;;22.90;58.20;;;;;;5051552;28;20199;-70
2022/07/18 03:25:25;;;;;;;2.35;2.15;;;22.90;58.20;;;;;;5053360;28;20210;-70
2022/07/18 03:27:51;;;;;;;2.50;2.30;;;22.90;58.20;;;;;;5053576;28;20163;-69
2022/07/18 03:30:17;;;;;;;2.70;2.50;;;22.90;58.20;;;;;;5035379;28;20182;-69
2022/07/18 03:32:43;;;;;;;2.97;2.78;;;22.90;58.20;;;;;;5034712;28;20206;-70
2022/07/18 03:35:09;;;;;;;2.60;2.40;;;22.90;58.20;;;;;;5051985;28;20677;-69
2022/07/18 03:37:35;;;;;;;2.70;2.47;;;22.90;58.20;;;;;;5036416;28;20689;-69
2022/07/18 03:40:01;;;;;;;2.88;2.58;;;22.90;58.20;;;;;;5032345;28;20222;-70
2022/07/18 03:42:26;;;;;;;2.67;2.45;;;22.90;58.20;;;;;;5031540;28;20762;-70
2022/07/18 03:44:52;;;;;;;2.30;2.15;;;22.90;58.20;;;;;;5032050;28;20245;-69
2022/07/18 03:47:18;;;;;;;2.55;2.35;;;22.90;58.20;;;;;;5032798;28;20167;-69
2022/07/18 03:49:44;;;;;;;2.75;2.55;;;22.90;58.20;;;;;;5032069;28;20673;-69
2022/07/18 03:52:09;;;;;;;2.42;2.15;;;22.90;58.20;;;;;;5031830;28;20213;-69
2022/07/18 03:54:35;;;;;;;3.03;2.72;;;22.80;58.10;;;;;;5031182;28;20194;-69
2022/07/18 03:57:01;;;;;;;2.30;2.10;;;22.80;58.20;;;;;;5031932;28;20627;-69
2022/07/18 03:59:26;;;;;;;2.40;2.20;;;22.80;58.20;;;;;;5031886;28;20179;-69
2022/07/18 04:01:52;;;;;;;2.40;2.20;;;22.80;58.20;;;;;;5031373;28;20597;-70
2022/07/18 04:04:18;;;;;;;2.90;2.60;;;22.80;58.20;;;;;;5032468;28;20251;-69
2022/07/18 04:06:44;;;;;;;2.60;2.30;;;22.80;58.20;;;;;;5014984;28;20218;-69
2022/07/18 04:09:09;;;;;;;2.53;2.33;;;22.90;58.20;;;;;;5048440;28;20194;-69
2022/07/18 04:11:35;;;;;;;2.85;2.40;;;22.80;58.20;;;;;;5031400;28;20206;-69
2022/07/18 04:14:01;;;;;;;2.53;2.33;;;22.80;58.20;;;;;;5047431;28;20198;-69
2022/07/18 04:16:27;;;;;;;2.80;2.60;;;22.80;58.30;;;;;;5047944;28;20759;-69
2022/07/18 04:18:52;;;;;;;3.90;2.67;;;22.90;58.30;;;;;;5031692;28;20175;-69
2022/07/18 04:21:18;;;;;;;2.40;2.20;;;22.80;58.30;;;;;;5031206;28;20206;-69
2022/07/18 04:23:44;;;;;;;2.95;2.75;;;22.80;58.30;;;;;;5031833;28;20662;-69
2022/07/18 04:26:10;;;;;;;3.03;2.30;;;22.80;58.20;;;;;;5031184;28;20182;-69
2022/07/18 04:28:36;;;;;;;2.70;2.28;;;22.80;58.30;;;;;;5032397;28;20180;-68
2022/07/18 04:31:02;;;;;;;3.28;2.47;;;22.80;58.30;;;;;;5031112;28;20195;-68
2022/07/18 04:33:27;;;;;;;2.10;2.00;;;22.80;58.20;;;;;;5030524;28;20237;-68
2022/07/18 04:35:53;;;;;;;2.22;2.08;;;22.80;58.10;;;;;;5047629;28;20214;-68
2022/07/18 04:38:19;;;;;;;2.88;2.10;;;22.80;58.10;;;;;;5047487;28;20193;-69
2022/07/18 04:40:45;;;;;;;2.85;2.20;;;22.80;58.00;;;;;;5030984;28;20214;-68
2022/07/18 04:43:11;;;;;;;3.00;2.30;;;22.80;58.00;;;;;;5013733;28;20293;-69
2022/07/18 04:45:37;;;;;;;3.53;2.42;;;22.80;57.90;;;;;;5030927;28;20204;-69
2022/07/18 04:48:06;;;;;;;2.42;2.20;;;22.80;57.90;;;;;;5031304;28;20563;-69
2022/07/18 04:50:33;;;;;;;2.40;2.20;;;22.80;57.90;;;;;;5032177;28;20549;-69
2022/07/18 04:52:59;;;;;;;2.15;2.05;;;22.80;57.80;;;;;;5030537;28;20207;-69
2022/07/18 04:55:26;;;;;;;2.58;2.35;;;22.80;57.80;;;;;;5030604;28;20195;-69
2022/07/18 04:57:52;;;;;;;2.67;2.47;;;22.80;57.70;;;;;;5032140;28;20274;-68
2022/07/18 05:00:22;;;;;;;2.40;2.20;;;22.80;57.80;;;;;;5047334;28;20214;-69
2022/07/18 05:02:51;;;;;;;2.67;2.33;;;22.80;57.80;;;;;;5013987;28;20214;-69
2022/07/18 05:05:19;;;;;;;3.53;2.30;;;22.80;57.70;;;;;;5030688;28;20215;-68
2022/07/18 05:07:47;;;;;;;2.67;2.33;;;22.80;57.70;;;;;;5030681;28;20666;-68
2022/07/18 05:10:15;;;;;;;2.25;2.03;;;22.80;57.60;;;;;;5035827;28;20266;-69
2022/07/18 05:12:43;;;;;;;3.15;2.08;;;22.80;57.70;;;;;;5031251;28;20298;-68
2022/07/18 05:15:14;;;;;;;2.20;2.00;;;22.80;57.60;;;;;;5030716;28;20304;-69
2022/07/18 05:17:40;;;;;;;2.60;2.40;;;22.80;57.60;;;;;;5047021;28;20203;-69
2022/07/18 05:20:10;;;;;;;2.38;2.00;;;22.80;57.50;;;;;;5031390;28;20268;-69
2022/07/18 05:22:37;;;;;;;2.67;2.35;;;22.80;57.60;;;;;;5030840;28;20207;-69
2022/07/18 05:25:06;;;;;;;2.03;1.85;;;22.80;57.50;;;;;;5031330;28;20264;-69
2022/07/18 05:27:32;;;;;;;2.42;2.22;;;22.70;57.50;;;;;;5029959;28;20187;-69
2022/07/18 05:30:01;;;;;;;2.33;2.13;;;22.70;57.50;;;;;;5031679;28;20191;-69
2022/07/18 05:32:28;;;;;;;2.80;1.90;;;22.70;57.50;;;;;;5034842;28;20245;-69
2022/07/18 05:34:54;;;;;;;2.05;1.85;;;22.80;57.60;;;;;;5035116;28;20268;-69
2022/07/18 05:37:20;;;;;;;2.35;1.77;;;22.70;57.50;;;;;;5067153;28;20195;-69
2022/07/18 05:39:46;;;;;;;2.33;1.75;;;22.80;57.60;;;;;;5034593;28;20182;-69
2022/07/18 05:42:12;;;;;;;2.58;1.95;;;22.70;57.50;;;;;;5049423;28;20292;-69
2022/07/18 05:44:38;;;;;;;3.10;1.88;;;22.80;57.60;;;;;;5069513;28;20253;-70
2022/07/18 05:47:03;;;;;;;1.92;1.83;;;22.80;57.60;;;;;;5036704;28;20589;-69
2022/07/18 05:49:29;;;;;;;2.00;1.90;;;22.70;57.50;;;;;;5054687;28;20178;-69
2022/07/18 05:51:55;;;;;;;2.75;2.17;;;22.80;57.60;;;;;;5053409;28;20260;-69
2022/07/18 05:54:21;;;;;;;2.22;2.03;;;22.80;57.60;;;;;;5069282;28;20393;-69
2022/07/18 05:56:49;;;;;;;2.10;1.90;;;22.70;57.60;;;;;;5054442;28;20193;-71
2022/07/18 05:59:17;;;;;;;3.10;2.10;;;22.70;57.60;;;;;;5053492;28;20255;-71
2022/07/18 06:01:43;;;;;;;2.33;1.90;;;22.80;57.70;;;;;;5053154;28;20216;-71
2022/07/18 06:04:09;;;;;;;2.00;1.75;;;22.80;57.70;;;;;;5052564;28;20214;-71
2022/07/18 06:06:35;;;;;;;1.73;1.52;;;22.70;57.60;;;;;;5053027;28;20175;-71
2022/07/18 06:09:02;;;;;;;2.75;1.80;;;22.80;57.80;;;;;;5036386;28;20194;-72
2022/07/18 06:11:28;;;;;;;1.70;1.60;;;22.80;57.70;;;;;;5052982;28;20214;-71
2022/07/18 06:13:54;;;;;;;2.72;2.30;;;22.70;57.70;;;;;;5052457;28;20174;-71
2022/07/18 06:16:20;;;;;;;2.65;2.00;;;22.70;57.60;;;;;;5053811;28;20190;-71
2022/07/18 06:18:46;;;;;;;2.78;1.95;;;22.70;57.80;;;;;;5053114;28;20232;-71
2022/07/18 06:21:12;;;;;;;2.80;2.47;;;22.70;57.80;;;;;;5054258;28;20225;-72
2022/07/18 06:23:38;;;;;;;2.40;2.15;;;22.70;57.90;;;;;;5052865;28;20187;-70
2022/07/18 06:26:04;;;;;;;2.20;1.83;;;22.80;58.00;;;;;;5052820;28;20210;-72
2022/07/18 06:28:30;;;;;;;2.55;2.13;;;22.80;57.90;;;;;;5052886;28;20191;-72
2022/07/18 06:30:56;;;;;;;3.30;2.00;;;22.80;57.90;;;;;;5054030;28;20190;-72
2022/07/18 06:33:22;;;;;;;2.67;2.03;;;22.70;58.00;;;;;;5035377;28;20191;-72
2022/07/18 06:35:48;;;;;;;2.00;1.80;;;22.80;58.10;;;;;;5035932;28;20197;-71
2022/07/18 06:38:16;;;;;;;2.55;1.75;;;22.80;58.10;;;;;;5054280;28;20232;-72
2022/07/18 06:40:42;;;;;;;1.92;1.80;;;22.80;58.10;;;;;;5053209;28;20214;-71
2022/07/18 06:43:09;;;;;;;2.10;2.00;;;22.80;58.10;;;;;;5034904;28;20250;-71
2022/07/18 06:45:35;;;;;;;2.13;1.95;;;22.80;58.10;;;;;;5052558;28;20218;-71
2022/07/18 06:48:01;;;;;;;2.72;2.00;;;22.80;58.20;;;;;;5035880;28;20201;-71
2022/07/18 06:50:27;;;;;;;2.40;2.10;;;22.70;58.10;;;;;;5052477;28;20183;-72
2022/07/18 06:52:53;;;;;;;2.00;1.90;;;22.80;58.20;;;;;;5043933;28;20310;-71
2022/07/18 06:55:19;;;;;;;2.08;1.88;;;22.80;58.30;;;;;;5033521;28;20279;-71
2022/07/18 06:57:45;;;;;;;1.90;1.80;;;22.80;58.30;;;;;;5033366;28;20209;-71
2022/07/18 07:00:14;;;;;;;2.05;1.88;;;22.80;58.20;;;;;;5048902;28;20197;-71
2022/07/18 07:02:49;;;;;;;3.03;2.30;;;22.80;58.20;;;;;;5015099;28;20685;-72
2022/07/18 07:05:17;;;;;;;2.03;1.77;;;22.80;58.30;;;;;;5033128;28;20206;-72
2022/07/18 07:07:45;;;;;;;2.17;1.85;;;22.80;58.00;;;;;;5033160;28;20214;-71
2022/07/18 07:10:11;;;;;;;2.08;1.83;;;22.80;57.90;;;;;;5031809;28;20669;-71
2022/07/18 07:12:44;;;;;;;2.67;2.00;;;22.80;57.80;;;;;;5031690;28;20295;-70
2022/07/18 07:15:10;;;;;;;2.47;2.10;;;22.80;57.80;;;;;;5033177;28;20582;-71
2022/07/18 07:17:37;;;;;;;2.10;1.90;;;22.80;57.90;;;;;;5031893;28;20227;-71
2022/07/18 07:20:06;;;;;;;1.90;1.80;;;22.80;57.60;;;;;;5048333;28;20187;-71
2022/07/18 07:22:41;;;;;;;2.10;1.75;;;22.80;57.60;;;;;;5031803;28;20205;-71
2022/07/18 07:25:08;;;;;;;2.50;2.30;;;22.80;57.70;;;;;;5048341;28;20222;-72
2022/07/18 07:27:34;;;;;;;2.05;1.88;;;22.80;57.80;;;;;;5048447;28;20179;-71
2022/07/18 07:30:00;;;;;;;1.75;1.65;;;22.80;57.80;;;;;;5048162;28;20209;-71
2022/07/18 07:32:26;;;;;;;2.30;2.03;;;22.80;57.60;;;;;;5031789;28;20233;-71
2022/07/18 07:34:51;;;;;;;1.90;1.80;;;22.80;57.50;;;;;;5032090;28;20195;-71
2022/07/18 07:37:17;;;;;;;2.38;1.90;;;22.90;57.50;;;;;;5031556;28;20305;-71
2022/07/18 07:39:43;;;;;;;1.88;1.77;;;22.80;57.40;;;;;;5031479;28;20709;-72
2022/07/18 07:42:09;;;;;;;1.80;1.70;;;22.90;57.40;;;;;;5031422;28;20211;-72
2022/07/18 07:44:34;;;;;;;2.17;1.80;;;22.90;57.40;;;;;;5038328;28;20203;-71
2022/07/18 07:47:00;;;;;;;1.92;1.60;;;22.90;57.40;;;;;;5031285;28;20190;-72
2022/07/18 07:49:26;;;;;;;1.98;1.88;;;22.90;57.50;;;;;;5031366;28;20647;-72
2022/07/18 07:51:52;;;;;;;1.77;1.67;;;22.90;57.40;;;;;;5031256;28;20281;-71
2022/07/18 07:54:17;;;;;;;2.22;1.95;;;22.90;57.30;;;;;;5030510;28;20187;-71
2022/07/18 07:56:43;;;;;;;2.08;1.88;;;22.90;57.40;;;;;;5033583;28;20186;-71
2022/07/18 07:59:09;;;;;;;2.40;2.20;;;22.90;57.20;;;;;;5051707;28;20190;-71
2022/07/18 08:01:34;;;;;;;1.92;1.60;;;22.90;57.30;;;;;;5051957;28;20206;-71
2022/07/18 08:04:00;;;;;;;2.00;1.80;;;22.90;57.20;;;;;;5050034;28;20209;-71
2022/07/18 08:06:26;;;;;;;1.73;1.63;;;22.90;57.10;;;;;;5042874;28;20186;-71
2022/07/18 08:08:52;;;;;;;1.80;1.70;;;22.90;57.10;;;;;;5050993;28;20197;-72
2022/07/18 08:11:18;;;;;;;2.17;1.98;;;22.90;57.10;;;;;;5050487;28;20206;-71
2022/07/18 08:13:43;;;;;;;2.03;1.70;;;22.90;57.50;;;;;;5033184;28;20181;-72
2022/07/18 08:16:09;;;;;;;1.92;1.73;;;22.90;56.90;;;;;;5050627;28;20182;-72
2022/07/18 08:18:35;;;;;;;1.60;1.50;;;22.90;57.00;;;;;;5051502;28;20190;-71
2022/07/18 08:21:04;;;;;;;1.95;1.85;;;22.90;56.80;;;;;;5049974;28;20213;-71
2022/07/18 08:23:29;;;;;;;1.60;1.50;;;22.90;56.80;;;;;;5051190;28;20194;-72
2022/07/18 08:25:55;;;;;;;1.75;1.65;;;22.90;57.00;;;;;;5050655;28;20241;-71
2022/07/18 08:28:21;;;;;;;2.20;2.00;;;22.90;56.90;;;;;;5051812;28;20186;-71
2022/07/18 08:30:47;;;;;;;2.33;1.80;;;22.90;56.80;;;;;;5033870;28;20194;-71
2022/07/18 08:33:12;;;;;;;2.42;1.80;;;22.90;57.00;;;;;;5051250;28;20258;-71
2022/07/18 08:35:38;;;;;;;1.70;1.60;;;22.90;56.80;;;;;;5050533;28;20559;-71
2022/07/18 08:38:04;;;;;;;2.13;1.90;;;22.90;56.90;;;;;;5050484;28;20241;-71
2022/07/18 08:40:30;;;;;;;1.88;1.77;;;22.90;57.00;;;;;;5034162;28;20289;-71
2022/07/18 08:42:58;;;;;;;2.13;1.60;;;22.90;57.00;;;;;;5049184;28;20285;-71
2022/07/18 08:45:25;;;;;;;1.70;1.60;;;22.90;57.10;;;;;;5049977;28;20726;-71
2022/07/18 08:47:52;;;;;;;2.53;2.00;;;22.90;57.10;;;;;;5032148;28;20182;-72
2022/07/18 08:50:19;;;;;;;1.70;1.60;;;22.90;57.00;;;;;;5049228;28;20193;-71
2022/07/18 08:52:45;;;;;;;2.42;1.83;;;22.90;56.90;;;;;;5049809;28;20202;-71
2022/07/18 08:55:14;;;;;;;1.63;1.52;;;22.90;56.90;;;;;;5042624;28;20184;-71
2022/07/18 08:57:40;;;;;;;2.53;1.88;;;22.90;56.90;;;;;;5031021;28;20183;-71
2022/07/18 09:00:10;;;;;;;1.75;1.65;;;22.90;56.80;;;;;;5029837;28;20200;-71
2022/07/18 09:02:37;;;;;;;1.70;1.60;;;22.90;56.80;;;;;;5031450;28;20199;-71
2022/07/18 09:05:05;;;;;;;1.88;1.77;;;22.90;56.90;;;;;;5032224;28;20207;-71
2022/07/18 09:07:37;;;;;;;1.70;1.60;;;22.90;57.10;;;;;;5034385;28;20260;-71
2022/07/18 09:10:05;;;;;;;1.70;1.60;;;22.90;56.90;;;;;;5033635;28;20194;-71
2022/07/18 09:12:32;;;;;;;1.80;1.70;;;22.90;56.80;;;;;;5017678;28;20214;-72
2022/07/18 09:15:05;;;;;;;2.00;1.90;;;22.90;56.80;;;;;;5033495;28;20642;-71
2022/07/18 09:17:34;;;;;;;1.75;1.65;;;22.90;56.80;;;;;;5034033;28;20233;-72
2022/07/18 09:20:11;;;;;;;1.70;1.60;;;22.90;56.80;;;;;;5033505;28;20186;-72
2022/07/18 09:22:49;;;;;;;1.60;1.50;;;22.90;56.80;;;;;;5017861;28;20260;-71
2022/07/18 09:25:21;;;;;;;1.80;1.70;;;22.90;56.80;;;;;;5035217;28;20210;-72
2022/07/18 09:27:53;;;;;;;1.52;1.42;;;22.90;56.70;;;;;;5034467;28;20187;-71
2022/07/18 09:30:30;;;;;;;1.60;1.50;;;22.90;56.70;;;;;;5034376;28;20194;-71
2022/07/18 09:33:01;;;;;;;1.80;1.70;;;22.90;56.90;;;;;;5033680;28;20199;-71
2022/07/18 09:35:29;;;;;;;1.77;1.63;;;22.90;56.90;;;;;;5034429;28;20255;-71
2022/07/18 09:38:11;;;;;;;1.50;1.40;;;22.90;56.90;;;;;;5017676;28;20191;-71
2022/07/18 09:40:46;;;;;;;2.38;1.80;;;22.90;56.80;;;;;;5034250;28;20171;-71
2022/07/18 09:43:15;;;;;;;1.83;1.50;;;22.90;56.70;;;;;;5033744;28;20626;-71
2022/07/18 09:45:49;;;;;;;2.65;1.60;;;22.90;56.60;;;;;;5041165;28;20369;-71
2022/07/18 09:48:25;;;;;;;1.85;1.58;;;22.90;57.00;;;;;;5034153;28;20206;-71
2022/07/18 09:50:53;;;;;;;1.50;1.40;;;22.90;56.80;;;;;;5017401;28;20190;-71
2022/07/18 09:53:23;;;;;;;1.83;1.73;;;22.90;56.80;;;;;;5033703;28;20273;-71
2022/07/18 09:56:07;;;;;;;2.83;1.77;;;23.00;56.80;;;;;;5033937;28;20199;-72
2022/07/18 09:58:50;;;;;;;1.85;1.75;;;22.90;56.60;;;;;;5034010;28;20194;-71
2022/07/18 10:01:16;;;;;;;2.08;1.80;;;22.90;56.50;;;;;;5034984;28;20221;-72
2022/07/18 10:03:42;;;;;;;1.75;1.65;;;23.00;56.60;;;;;;5034542;28;20183;-71
2022/07/18 10:06:10;;;;;;;1.58;1.48;;;22.90;56.50;;;;;;5034972;28;20196;-71
2022/07/18 10:08:36;;;;;;;1.67;1.58;;;23.00;56.60;;;;;;5033708;28;20180;-71
2022/07/18 10:11:05;;;;;;;1.60;1.50;;;23.00;56.60;;;;;;5033554;28;20756;-71
2022/07/18 10:13:35;;;;;;;1.65;1.40;;;23.00;56.40;;;;;;5033293;28;20198;-71
2022/07/18 10:16:02;;;;;;;1.95;1.80;;;23.00;56.40;;;;;;5016363;28;20183;-71
2022/07/18 10:18:34;;;;;;;1.65;1.55;;;23.00;56.40;;;;;;5033858;28;20269;-71
2022/07/18 10:21:10;;;;;;;1.67;1.58;;;23.00;56.40;;;;;;5033305;28;20218;-69
2022/07/18 10:23:47;;;;;;;1.60;1.50;;;23.00;56.20;;;;;;5032938;28;20202;-68
2022/07/18 10:26:23;;;;;;;1.75;1.60;;;23.00;56.20;;;;;;5035919;28;20210;-69
2022/07/18 10:28:55;;;;;;;1.70;1.60;;;23.00;56.40;;;;;;5036870;28;20182;-69
2022/07/18 10:31:33;;;;;;;1.70;1.60;;;23.00;56.80;;;;;;5053909;28;20704;-68
2022/07/18 10:34:04;;;;;;;1.67;1.58;;;23.00;57.10;;;;;;5053397;28;20221;-69
2022/07/18 10:36:32;;;;;;;1.60;1.50;;;23.00;56.90;;;;;;5036386;28;20259;-68
2022/07/18 10:39:20;;;;;;;2.35;1.50;;;23.00;56.90;;;;;;5052800;28;20183;-68
2022/07/18 10:41:46;;;;;;;1.65;1.55;;;23.00;57.30;;;;;;5052944;28;20682;-69
2022/07/18 10:44:34;;;;;;;1.50;1.40;;;23.00;57.40;;;;;;5036076;28;20222;-69
2022/07/18 10:47:03;;;;;;;1.88;1.73;;;23.00;57.50;;;;;;5043849;28;20187;-71
2022/07/18 10:49:50;;;;;;;1.63;1.52;;;23.00;57.40;;;;;;5043019;28;20193;-71
2022/07/18 10:52:27;;;;;;;1.88;1.60;;;23.00;58.20;;;;;;5047269;28;20213;-71
2022/07/18 10:55:02;;;;;;;1.95;1.63;;;23.00;57.30;;;;;;5052170;28;20291;-71
2022/07/18 10:57:37;;;;;;;1.75;1.65;;;23.00;57.60;;;;;;5036245;28;20190;-72
2022/07/18 11:00:05;;;;;;;1.70;1.60;;;23.00;57.40;;;;;;5031719;28;20194;-71
2022/07/18 11:03:00;;;;;;;2.10;1.80;;;23.00;57.00;;;;;;5032681;28;20717;-71
2022/07/18 11:05:25;;;;;;;1.80;1.63;;;23.00;57.20;;;;;;5034981;28;20245;-71
2022/07/18 11:07:57;;;;;;;1.60;1.50;;;23.10;57.00;;;;;;5051433;28;20646;-71
2022/07/18 11:10:41;;;;;;;1.70;1.60;;;23.10;57.00;;;;;;5053478;28;20197;-72
2022/07/18 11:13:28;;;;;;;1.45;1.35;;;23.10;57.30;;;;;;5051555;28;20269;-70
2022/07/18 11:16:13;;;;;;;2.03;1.85;;;23.10;57.30;;;;;;5033038;28;20259;-71
2022/07/18 11:18:39;;;;;;;1.70;1.60;;;23.10;57.10;;;;;;5052248;28;20190;-71
2022/07/18 11:21:33;;;;;;;1.70;1.60;;;23.10;57.30;;;;;;5051640;28;20272;-71
2022/07/18 11:24:08;;;;;;;2.00;1.80;;;23.10;57.20;;;;;;5051896;28;20175;-71
2022/07/18 11:26:47;;;;;;;1.73;1.63;;;23.10;57.20;;;;;;5052435;28;20201;-71
2022/07/18 11:29:18;;;;;;;2.00;1.63;;;23.10;57.20;;;;;;5053960;28;20202;-71
2022/07/18 11:31:57;;;;;;;2.08;1.70;;;23.10;57.00;;;;;;5045804;28;20685;-71
2022/07/18 11:34:25;;;;;;;1.98;1.55;;;23.10;57.10;;;;;;5052675;28;20201;-71
2022/07/18 11:36:51;;;;;;;1.73;1.63;;;23.10;57.60;;;;;;5052287;28;20193;-71
2022/07/18 11:39:32;;;;;;;1.63;1.52;;;23.10;57.10;;;;;;5051613;28;20192;-72
2022/07/18 11:42:01;;;;;;;1.65;1.55;;;23.10;57.00;;;;;;5051879;28;20210;-71
2022/07/18 11:44:27;;;;;;;2.15;1.65;;;23.10;56.80;;;;;;5052280;28;20210;-71
2022/07/18 11:47:11;;;;;;;1.63;1.52;;;23.10;57.10;;;;;;5035136;28;20197;-72
2022/07/18 11:49:38;;;;;;;1.73;1.63;;;23.10;56.90;;;;;;5035105;28;20182;-71
2022/07/18 11:52:06;;;;;;;1.80;1.70;;;23.10;56.90;;;;;;5051557;28;20206;-71
2022/07/18 11:54:32;;;;;;;1.50;1.40;;;23.10;56.90;;;;;;5047806;28;20182;-71
2022/07/18 11:57:00;;;;;;;1.60;1.50;;;23.10;56.90;;;;;;5049433;28;20201;-71
2022/07/18 11:59:41;;;;;;;1.50;1.40;;;23.10;56.90;;;;;;5051439;28;20190;-71
2022/07/18 12:02:08;;;;;;;2.08;1.88;;;23.10;56.70;;;;;;5051275;28;20263;-71
2022/07/18 12:04:35;;;;;;;2.13;1.67;;;23.10;56.90;;;;;;5034208;28;20215;-71
2022/07/18 12:07:24;;;;;;;1.98;1.65;;;23.10;56.80;;;;;;5034692;28;20185;-71
2022/07/18 12:09:53;;;;;;;1.65;1.55;;;23.10;57.00;;;;;;5051471;28;20274;-71
2022/07/18 12:12:23;;;;;;;1.80;1.70;;;23.20;56.90;;;;;;5052699;28;20208;-71
2022/07/18 12:14:54;;;;;;;1.67;1.58;;;23.10;57.00;;;;;;5034029;28;20171;-71
2022/07/18 12:17:20;;;;;;;1.92;1.83;;;23.10;56.90;;;;;;5034838;28;20187;-71
2022/07/18 12:19:46;;;;;;;1.83;1.50;;;23.10;56.80;;;;;;5051079;28;20232;-71
2022/07/18 12:22:13;;;;;;;1.90;1.80;;;23.10;56.80;;;;;;5052396;28;20206;-71
2022/07/18 12:24:56;;;;;;;1.85;1.67;;;23.10;56.60;;;;;;5033942;28;20202;-71
2022/07/18 12:27:31;;;;;;;1.60;1.50;;;23.10;56.60;;;;;;5052676;28;20224;-71
2022/07/18 12:30:11;;;;;;;1.95;1.85;;;23.10;56.60;;;;;;5034767;28;20186;-71
2022/07/18 12:32:44;;;;;;;1.73;1.63;;;23.10;57.10;;;;;;5049718;28;20210;-71
2022/07/18 12:35:20;;;;;;;2.05;1.90;;;23.20;56.70;;;;;;5050527;28;20201;-71
2022/07/18 12:37:53;;;;;;;2.15;1.80;;;23.10;56.80;;;;;;5034420;28;20273;-71
2022/07/18 12:40:19;;;;;;;1.58;1.48;;;23.10;56.50;;;;;;5033619;28;20270;-71
2022/07/18 12:42:45;;;;;;;1.58;1.48;;;23.10;56.50;;;;;;5052053;28;20739;-71
2022/07/18 12:45:13;;;;;;;1.95;1.77;;;23.10;56.60;;;;;;5051468;28;20202;-71
2022/07/18 12:47:39;;;;;;;2.03;1.50;;;23.10;56.50;;;;;;5051073;28;20182;-71
2022/07/18 12:50:07;;;;;;;1.55;1.45;;;23.10;56.40;;;;;;5050917;28;20607;-71
2022/07/18 12:52:34;;;;;;;1.70;1.60;;;23.20;56.70;;;;;;5033992;28;20612;-71
2022/07/18 12:55:00;;;;;;;1.55;1.45;;;23.20;56.50;;;;;;5050573;28;20194;-71
2022/07/18 12:57:26;;;;;;;1.80;1.50;;;23.20;56.50;;;;;;5050797;28;20236;-71